sensor_id;sensor_type;location;lat;lon;timestamp;pressure;altitude;pressure_sealevel;temperature;humidity
9523;BME280;63165;43.016;25.784;2023-04-07T00:00:54;99889.13;;;7.98;64.57
9523;BME280;63165;43.016;25.784;2023-04-07T00:03:21;99892.63;;;7.97;64.53
9523;BME280;63165;43.016;25.784;2023-04-07T00:05:48;99899.59;;;7.92;64.89
9523;BME280;63165;43.016;25.784;2023-04-07T00:08:17;99875.38;;;7.84;65.16
9523;BME280;63165;43.016;25.784;2023-04-07T00:10:44;99905.72;;;7.90;65.58
9523;BME280;63165;43.016;25.784;2023-04-07T00:13:11;99889.22;;;7.88;66.23
9523;BME280;63165;43.016;25.784;2023-04-07T00:15:39;99882.41;;;7.73;66.13
9523;BME280;63165;43.016;25.784;2023-04-07T00:18:06;99898.81;;;7.80;66.29
9523;BME280;63165;43.016;25.784;2023-04-07T00:20:33;99893.69;;;7.73;66.25
9523;BME280;63165;43.016;25.784;2023-04-07T00:23:00;99873.81;;;7.62;66.43
9523;BME280;63165;43.016;25.784;2023-04-07T00:25:29;99899.78;;;7.71;66.33
9523;BME280;63165;43.016;25.784;2023-04-07T00:27:56;99858.31;;;7.42;66.86
9523;BME280;63165;43.016;25.784;2023-04-07T00:30:24;99892.06;;;7.57;67.27
9523;BME280;63165;43.016;25.784;2023-04-07T00:32:51;99873.03;;;7.46;67.04
9523;BME280;63165;43.016;25.784;2023-04-07T00:35:18;99860.06;;;7.39;67.49
9523;BME280;63165;43.016;25.784;2023-04-07T00:37:45;99871.28;;;7.48;67.74
9523;BME280;63165;43.016;25.784;2023-04-07T00:40:13;99889.44;;;7.57;67.59
9523;BME280;63165;43.016;25.784;2023-04-07T00:42:42;99892.03;;;7.60;67.92
9523;BME280;63165;43.016;25.784;2023-04-07T00:45:10;99902.47;;;7.57;68.09
9523;BME280;63165;43.016;25.784;2023-04-07T00:47:37;99874.00;;;7.37;67.62
9523;BME280;63165;43.016;25.784;2023-04-07T00:50:05;99871.34;;;7.40;68.13
9523;BME280;63165;43.016;25.784;2023-04-07T00:52:33;99882.59;;;7.42;68.44
9523;BME280;63165;43.016;25.784;2023-04-07T00:55:00;99893.88;;;7.44;68.17
9523;BME280;63165;43.016;25.784;2023-04-07T00:57:28;99886.06;;;7.46;68.53
9523;BME280;63165;43.016;25.784;2023-04-07T00:59:57;99876.56;;;7.40;68.91
9523;BME280;63165;43.016;25.784;2023-04-07T01:02:31;99857.53;;;7.30;68.70
9523;BME280;63165;43.016;25.784;2023-04-07T01:05:06;99883.47;;;7.44;69.25
9523;BME280;63165;43.016;25.784;2023-04-07T01:07:42;99857.59;;;7.24;68.86
9523;BME280;63165;43.016;25.784;2023-04-07T01:10:13;99883.50;;;7.36;68.74
9523;BME280;63165;43.016;25.784;2023-04-07T01:12:51;99868.00;;;7.18;69.03
9523;BME280;63165;43.016;25.784;2023-04-07T01:15:23;99864.59;;;7.10;68.82
9523;BME280;63165;43.016;25.784;2023-04-07T01:17:58;99880.16;;;7.19;68.95
9523;BME280;63165;43.016;25.784;2023-04-07T01:20:29;99863.75;;;7.09;68.82
9523;BME280;63165;43.016;25.784;2023-04-07T01:23:03;99891.47;;;7.12;68.78
9523;BME280;63165;43.016;25.784;2023-04-07T01:25:53;99883.69;;;7.03;69.51
9523;BME280;63165;43.016;25.784;2023-04-07T01:28:43;99886.34;;;6.92;69.16
9523;BME280;63165;43.016;25.784;2023-04-07T01:31:14;99891.56;;;6.86;68.90
9523;BME280;63165;43.016;25.784;2023-04-07T01:33:44;99889.00;;;6.81;68.93
9523;BME280;63165;43.016;25.784;2023-04-07T01:36:12;99887.31;;;6.69;68.89
9523;BME280;63165;43.016;25.784;2023-04-07T01:38:43;99888.19;;;6.65;68.96
9523;BME280;63165;43.016;25.784;2023-04-07T01:41:13;99880.41;;;6.59;69.01
9523;BME280;63165;43.016;25.784;2023-04-07T01:43:42;99882.19;;;6.49;69.26
9523;BME280;63165;43.016;25.784;2023-04-07T01:46:09;99865.75;;;6.32;68.97
9523;BME280;63165;43.016;25.784;2023-04-07T01:48:38;99870.09;;;6.34;69.46
9523;BME280;63165;43.016;25.784;2023-04-07T01:51:06;99895.22;;;6.29;69.84
9523;BME280;63165;43.016;25.784;2023-04-07T01:53:37;99859.72;;;6.20;69.92
9523;BME280;63165;43.016;25.784;2023-04-07T01:56:05;99845.03;;;6.07;69.65
9523;BME280;63165;43.016;25.784;2023-04-07T01:58:32;99863.19;;;6.16;69.91
9523;BME280;63165;43.016;25.784;2023-04-07T02:01:00;99833.78;;;5.96;69.87
9523;BME280;63165;43.016;25.784;2023-04-07T02:03:30;99853.69;;;6.03;70.11
9523;BME280;63165;43.016;25.784;2023-04-07T02:06:03;99853.69;;;6.03;70.12
9523;BME280;63165;43.016;25.784;2023-04-07T02:08:33;99863.22;;;6.07;69.85
9523;BME280;63165;43.016;25.784;2023-04-07T02:11:02;99864.06;;;5.98;69.80
9523;BME280;63165;43.016;25.784;2023-04-07T02:13:33;99867.53;;;5.96;70.01
9523;BME280;63165;43.016;25.784;2023-04-07T02:16:01;99851.94;;;5.94;70.59
9523;BME280;63165;43.016;25.784;2023-04-07T02:18:29;99855.41;;;5.93;70.45
9523;BME280;63165;43.016;25.784;2023-04-07T02:21:03;99866.66;;;5.98;70.74
9523;BME280;63165;43.016;25.784;2023-04-07T02:23:34;99870.13;;;5.88;71.22
9523;BME280;63165;43.016;25.784;2023-04-07T02:26:04;99862.31;;;5.85;71.47
9523;BME280;63165;43.016;25.784;2023-04-07T02:28:31;99876.19;;;5.92;71.24
9523;BME280;63165;43.016;25.784;2023-04-07T02:30:59;99866.66;;;5.89;71.55
9523;BME280;63165;43.016;25.784;2023-04-07T02:33:26;99868.38;;;5.81;71.49
9523;BME280;63165;43.016;25.784;2023-04-07T02:35:53;99874.44;;;5.78;71.77
9523;BME280;63165;43.016;25.784;2023-04-07T02:38:22;99868.38;;;5.82;72.15
9523;BME280;63165;43.016;25.784;2023-04-07T02:40:50;99849.34;;;5.70;72.44
9523;BME280;63165;43.016;25.784;2023-04-07T02:43:19;99853.69;;;5.71;72.60
9523;BME280;63165;43.016;25.784;2023-04-07T02:45:46;99868.41;;;5.75;72.71
9523;BME280;63165;43.016;25.784;2023-04-07T02:48:13;99864.06;;;5.74;73.26
9523;BME280;63165;43.016;25.784;2023-04-07T02:50:40;99824.25;;;5.47;73.18
9523;BME280;63165;43.016;25.784;2023-04-07T02:53:08;99890.88;;;5.76;73.68
9523;BME280;63165;43.016;25.784;2023-04-07T02:55:37;99885.69;;;5.77;73.75
9523;BME280;63165;43.016;25.784;2023-04-07T02:58:04;99883.97;;;5.75;73.71
9523;BME280;63165;43.016;25.784;2023-04-07T03:00:32;99886.56;;;5.82;74.06
9523;BME280;63165;43.016;25.784;2023-04-07T03:02:59;99869.25;;;5.78;74.03
9523;BME280;63165;43.016;25.784;2023-04-07T03:05:27;99854.53;;;5.67;74.39
9523;BME280;63165;43.016;25.784;2023-04-07T03:07:54;99853.66;;;5.74;74.22
9523;BME280;63165;43.016;25.784;2023-04-07T03:10:21;99874.44;;;5.83;74.08
9523;BME280;63165;43.016;25.784;2023-04-07T03:12:50;99889.16;;;5.82;74.38
9523;BME280;63165;43.016;25.784;2023-04-07T03:15:18;99875.31;;;5.83;74.64
9523;BME280;63165;43.016;25.784;2023-04-07T03:17:45;99848.50;;;5.69;75.10
9523;BME280;63165;43.016;25.784;2023-04-07T03:20:12;99883.13;;;5.83;75.00
9523;BME280;63165;43.016;25.784;2023-04-07T03:22:39;99888.31;;;5.83;75.40
9523;BME280;63165;43.016;25.784;2023-04-07T03:25:07;99875.31;;;5.76;75.27
9523;BME280;63165;43.016;25.784;2023-04-07T03:27:34;99837.25;;;5.64;75.42
9523;BME280;63165;43.016;25.784;2023-04-07T03:30:04;99884.84;;;5.88;75.53
9523;BME280;63165;43.016;25.784;2023-04-07T03:32:31;99893.47;;;5.87;75.02
9523;BME280;63165;43.016;25.784;2023-04-07T03:34:59;99899.53;;;5.87;75.23
9523;BME280;63165;43.016;25.784;2023-04-07T03:37:26;99884.84;;;5.77;75.00
9523;BME280;63165;43.016;25.784;2023-04-07T03:39:53;99896.94;;;5.84;75.18
9523;BME280;63165;43.016;25.784;2023-04-07T03:42:20;99893.47;;;5.77;75.21
9523;BME280;63165;43.016;25.784;2023-04-07T03:44:47;99919.44;;;5.76;75.21
9523;BME280;63165;43.016;25.784;2023-04-07T03:47:16;99902.13;;;5.78;75.34
9523;BME280;63165;43.016;25.784;2023-04-07T03:49:43;99904.75;;;5.75;75.00
9523;BME280;63165;43.016;25.784;2023-04-07T03:52:11;99812.16;;;5.18;75.01
9523;BME280;63165;43.016;25.784;2023-04-07T03:54:38;99879.59;;;5.48;74.96
9523;BME280;63165;43.016;25.784;2023-04-07T03:57:06;99893.47;;;5.60;74.89
9523;BME280;63165;43.016;25.784;2023-04-07T03:59:34;99892.59;;;5.57;75.46
9523;BME280;63165;43.016;25.784;2023-04-07T04:02:01;99917.69;;;5.61;75.53
9523;BME280;63165;43.016;25.784;2023-04-07T04:04:30;99910.75;;;5.43;75.42
9523;BME280;63165;43.016;25.784;2023-04-07T04:06:57;99902.97;;;5.52;75.77
9523;BME280;63165;43.016;25.784;2023-04-07T04:09:27;99920.31;;;5.59;76.06
9523;BME280;63165;43.016;25.784;2023-04-07T04:11:55;99933.28;;;5.59;75.87
9523;BME280;63165;43.016;25.784;2023-04-07T04:14:22;99902.13;;;5.50;76.26
9523;BME280;63165;43.016;25.784;2023-04-07T04:16:50;99907.31;;;5.49;76.32
9523;BME280;63165;43.016;25.784;2023-04-07T04:19:17;99883.00;;;5.17;76.09
9523;BME280;63165;43.016;25.784;2023-04-07T04:21:46;99909.03;;;5.54;76.21
9523;BME280;63165;43.016;25.784;2023-04-07T04:24:13;99931.53;;;5.58;76.33
9523;BME280;63165;43.016;25.784;2023-04-07T04:26:40;99931.53;;;5.64;76.44
9523;BME280;63165;43.016;25.784;2023-04-07T04:29:08;99918.56;;;5.60;76.20
9523;BME280;63165;43.016;25.784;2023-04-07T04:31:35;99922.88;;;5.56;76.02
9523;BME280;63165;43.016;25.784;2023-04-07T04:34:03;99902.97;;;5.51;75.67
9523;BME280;63165;43.016;25.784;2023-04-07T04:36:31;99931.56;;;5.61;76.27
9523;BME280;63165;43.016;25.784;2023-04-07T04:39:00;99920.28;;;5.56;76.42
9523;BME280;63165;43.016;25.784;2023-04-07T04:41:27;99932.41;;;5.68;77.06
9523;BME280;63165;43.016;25.784;2023-04-07T04:43:54;99911.66;;;5.57;76.85
9523;BME280;63165;43.016;25.784;2023-04-07T04:46:21;99938.47;;;5.69;77.08
9523;BME280;63165;43.016;25.784;2023-04-07T04:48:49;99930.69;;;5.67;77.57
9523;BME280;63165;43.016;25.784;2023-04-07T04:51:17;99950.63;;;5.82;77.04
9523;BME280;63165;43.016;25.784;2023-04-07T04:53:44;99932.41;;;5.70;76.68
9523;BME280;63165;43.016;25.784;2023-04-07T04:56:13;99938.47;;;5.81;77.23
9523;BME280;63165;43.016;25.784;2023-04-07T04:58:41;99920.31;;;5.72;77.04
9523;BME280;63165;43.016;25.784;2023-04-07T05:01:10;99914.25;;;5.82;77.53
9523;BME280;63165;43.016;25.784;2023-04-07T05:03:38;99912.53;;;5.81;76.97
9523;BME280;63165;43.016;25.784;2023-04-07T05:06:06;99937.66;;;6.02;76.99
9523;BME280;63165;43.016;25.784;2023-04-07T05:08:33;99938.50;;;6.13;76.76
9523;BME280;63165;43.016;25.784;2023-04-07T05:11:02;99916.03;;;6.03;76.59
9523;BME280;63165;43.016;25.784;2023-04-07T05:13:30;99940.25;;;6.25;75.95
9523;BME280;63165;43.016;25.784;2023-04-07T05:15:57;99919.47;;;6.16;75.93
9523;BME280;63165;43.016;25.784;2023-04-07T05:18:25;99936.78;;;6.26;75.76
9523;BME280;63165;43.016;25.784;2023-04-07T05:20:53;99945.44;;;6.34;75.82
9523;BME280;63165;43.016;25.784;2023-04-07T05:23:20;99953.22;;;6.40;75.84
9523;BME280;63165;43.016;25.784;2023-04-07T05:25:48;99944.53;;;6.51;76.22
9523;BME280;63165;43.016;25.784;2023-04-07T05:28:18;99928.09;;;6.50;75.91
9523;BME280;63165;43.016;25.784;2023-04-07T05:30:49;99909.09;;;6.27;75.50
9523;BME280;63165;43.016;25.784;2023-04-07T05:33:16;99896.91;;;6.50;75.57
9523;BME280;63165;43.016;25.784;2023-04-07T05:35:44;99961.81;;;6.81;75.19
9523;BME280;63165;43.016;25.784;2023-04-07T05:38:18;99963.47;;;7.04;75.15
9523;BME280;63165;43.016;25.784;2023-04-07T05:40:45;99889.94;;;6.65;74.45
9523;BME280;63165;43.016;25.784;2023-04-07T05:43:13;99963.44;;;7.13;74.38
9523;BME280;63165;43.016;25.784;2023-04-07T05:45:40;99967.72;;;7.28;74.41
9523;BME280;63165;43.016;25.784;2023-04-07T05:48:08;99946.06;;;7.23;73.71
9523;BME280;63165;43.016;25.784;2023-04-07T05:50:36;99957.28;;;7.31;73.23
9523;BME280;63165;43.016;25.784;2023-04-07T05:53:03;99951.16;;;7.39;73.42
9523;BME280;63165;43.016;25.784;2023-04-07T05:55:30;99978.88;;;7.50;73.18
9523;BME280;63165;43.016;25.784;2023-04-07T05:57:58;99970.09;;;7.65;72.48
9523;BME280;63165;43.016;25.784;2023-04-07T06:00:25;99940.72;;;7.49;71.77
9523;BME280;63165;43.016;25.784;2023-04-07T06:02:53;99936.34;;;7.49;71.90
9523;BME280;63165;43.016;25.784;2023-04-07T06:05:21;99926.69;;;7.70;71.61
9523;BME280;63165;43.016;25.784;2023-04-07T06:07:49;99988.09;;;8.02;70.88
9523;BME280;63165;43.016;25.784;2023-04-07T06:10:16;99962.09;;;7.95;70.44
9523;BME280;63165;43.016;25.784;2023-04-07T06:12:43;99998.41;;;8.20;69.82
9523;BME280;63165;43.016;25.784;2023-04-07T06:15:11;99982.69;;;8.31;69.74
9523;BME280;63165;43.016;25.784;2023-04-07T06:17:38;99919.53;;;7.98;69.40
9523;BME280;63165;43.016;25.784;2023-04-07T06:20:07;99979.09;;;8.46;69.31
9523;BME280;63165;43.016;25.784;2023-04-07T06:22:36;99974.75;;;8.45;69.00
9523;BME280;63165;43.016;25.784;2023-04-07T06:25:04;99926.19;;;8.33;68.65
9523;BME280;63165;43.016;25.784;2023-04-07T06:27:31;99983.97;;;8.81;67.98
9523;BME280;63165;43.016;25.784;2023-04-07T06:29:59;99972.53;;;8.93;67.66
9523;BME280;63165;43.016;25.784;2023-04-07T06:32:26;99981.81;;;9.19;66.90
9523;BME280;63165;43.016;25.784;2023-04-07T06:34:54;99940.28;;;8.99;66.87
9523;BME280;63165;43.016;25.784;2023-04-07T06:37:21;99989.13;;;9.57;65.95
9523;BME280;63165;43.016;25.784;2023-04-07T06:39:52;100006.31;;;9.77;64.43
9523;BME280;63165;43.016;25.784;2023-04-07T06:42:19;99983.41;;;9.93;61.83
9523;BME280;63165;43.016;25.784;2023-04-07T06:44:46;99933.91;;;9.82;59.35
9523;BME280;63165;43.016;25.784;2023-04-07T06:47:14;99977.78;;;10.19;58.01
9523;BME280;63165;43.016;25.784;2023-04-07T06:49:41;99925.59;;;10.13;56.90
9523;BME280;63165;43.016;25.784;2023-04-07T06:52:08;99972.78;;;10.59;55.95
9523;BME280;63165;43.016;25.784;2023-04-07T06:54:36;99913.31;;;10.18;54.32
9523;BME280;63165;43.016;25.784;2023-04-07T06:57:05;99991.38;;;10.91;52.17
9523;BME280;63165;43.016;25.784;2023-04-07T06:59:36;99989.47;;;11.00;52.47
9523;BME280;63165;43.016;25.784;2023-04-07T07:02:03;99992.63;;;11.16;50.79
9523;BME280;63165;43.016;25.784;2023-04-07T07:04:32;99996.06;;;11.18;51.05
9523;BME280;63165;43.016;25.784;2023-04-07T07:07:00;99969.03;;;11.18;49.81
9523;BME280;63165;43.016;25.784;2023-04-07T07:09:27;99990.44;;;11.37;49.74
9523;BME280;63165;43.016;25.784;2023-04-07T07:11:55;99994.44;;;11.56;49.23
9523;BME280;63165;43.016;25.784;2023-04-07T07:14:24;99958.78;;;11.48;48.00
9523;BME280;63165;43.016;25.784;2023-04-07T07:16:51;99954.41;;;11.48;47.27
9523;BME280;63165;43.016;25.784;2023-04-07T07:19:18;99965.78;;;11.49;47.39
9523;BME280;63165;43.016;25.784;2023-04-07T07:21:45;99944.72;;;11.52;46.58
9523;BME280;63165;43.016;25.784;2023-04-07T07:24:13;99955.81;;;11.64;45.94
9523;BME280;63165;43.016;25.784;2023-04-07T07:26:40;99973.16;;;11.69;44.18
9523;BME280;63165;43.016;25.784;2023-04-07T07:29:07;99988.59;;;11.82;43.47
9523;BME280;63165;43.016;25.784;2023-04-07T07:31:36;100000.53;;;11.97;43.44
9523;BME280;63165;43.016;25.784;2023-04-07T07:34:03;100000.91;;;12.19;43.85
9523;BME280;63165;43.016;25.784;2023-04-07T07:36:31;99991.44;;;12.12;43.22
9523;BME280;63165;43.016;25.784;2023-04-07T07:38:58;99981.56;;;12.23;41.54
9523;BME280;63165;43.016;25.784;2023-04-07T07:41:25;99995.09;;;12.41;41.70
9523;BME280;63165;43.016;25.784;2023-04-07T07:43:52;99933.41;;;12.24;41.60
9523;BME280;63165;43.016;25.784;2023-04-07T07:46:20;99991.78;;;12.69;41.20
9523;BME280;63165;43.016;25.784;2023-04-07T07:48:50;99930.75;;;12.26;41.35
9523;BME280;63165;43.016;25.784;2023-04-07T07:51:18;99912.13;;;12.37;40.95
9523;BME280;63165;43.016;25.784;2023-04-07T07:53:45;99997.41;;;12.88;40.53
9523;BME280;63165;43.016;25.784;2023-04-07T07:56:12;99959.06;;;12.80;40.90
9523;BME280;63165;43.016;25.784;2023-04-07T07:58:40;99992.38;;;13.11;40.27
9523;BME280;63165;43.016;25.784;2023-04-07T08:01:07;99925.94;;;12.76;39.88
9523;BME280;63165;43.016;25.784;2023-04-07T08:03:34;99985.53;;;13.06;39.46
9523;BME280;63165;43.016;25.784;2023-04-07T08:06:03;99934.22;;;12.92;39.21
9523;BME280;63165;43.016;25.784;2023-04-07T08:08:31;99995.50;;;13.24;38.95
9523;BME280;63165;43.016;25.784;2023-04-07T08:10:58;99936.81;;;12.94;38.91
9523;BME280;63165;43.016;25.784;2023-04-07T08:13:25;99993.59;;;13.31;39.23
9523;BME280;63165;43.016;25.784;2023-04-07T08:15:53;99990.13;;;13.30;39.46
9523;BME280;63165;43.016;25.784;2023-04-07T08:18:20;99907.22;;;12.89;38.80
9523;BME280;63165;43.016;25.784;2023-04-07T08:20:47;99912.16;;;12.99;37.32
9523;BME280;63165;43.016;25.784;2023-04-07T08:23:17;99971.34;;;13.43;37.08
9523;BME280;63165;43.016;25.784;2023-04-07T08:25:45;99962.00;;;13.34;36.51
9523;BME280;63165;43.016;25.784;2023-04-07T08:28:12;99958.84;;;13.51;37.56
9523;BME280;63165;43.016;25.784;2023-04-07T08:30:39;99981.56;;;13.82;38.08
9523;BME280;63165;43.016;25.784;2023-04-07T08:33:07;99989.09;;;13.94;37.51
9523;BME280;63165;43.016;25.784;2023-04-07T08:35:34;99920.69;;;13.67;37.65
9523;BME280;63165;43.016;25.784;2023-04-07T08:38:01;99970.22;;;14.08;38.45
9523;BME280;63165;43.016;25.784;2023-04-07T08:40:31;99955.38;;;14.07;37.86
9523;BME280;63165;43.016;25.784;2023-04-07T08:42:59;99952.97;;;14.26;37.62
9523;BME280;63165;43.016;25.784;2023-04-07T08:45:27;99945.34;;;14.18;37.51
9523;BME280;63165;43.016;25.784;2023-04-07T08:47:57;99960.72;;;14.30;37.04
9523;BME280;63165;43.016;25.784;2023-04-07T08:50:26;99967.75;;;14.30;36.30
9523;BME280;63165;43.016;25.784;2023-04-07T08:52:56;99934.31;;;14.07;36.77
9523;BME280;63165;43.016;25.784;2023-04-07T08:55:29;99913.19;;;14.08;36.58
9523;BME280;63165;43.016;25.784;2023-04-07T08:57:58;99897.47;;;14.07;36.68
9523;BME280;63165;43.016;25.784;2023-04-07T09:00:25;99966.00;;;14.55;36.39
9523;BME280;63165;43.016;25.784;2023-04-07T09:02:54;99973.63;;;14.65;36.74
9523;BME280;63165;43.016;25.784;2023-04-07T09:05:22;99956.56;;;14.50;36.25
9523;BME280;63165;43.016;25.784;2023-04-07T09:07:50;99956.50;;;14.51;35.74
9523;BME280;63165;43.016;25.784;2023-04-07T09:10:17;99928.72;;;14.43;35.55
9523;BME280;63165;43.016;25.784;2023-04-07T09:12:44;99960.75;;;14.55;35.46
9523;BME280;63165;43.016;25.784;2023-04-07T09:15:13;99954.78;;;14.50;35.07
9523;BME280;63165;43.016;25.784;2023-04-07T09:17:40;99973.91;;;14.57;34.89
9523;BME280;63165;43.016;25.784;2023-04-07T09:20:08;99962.13;;;14.67;35.60
9523;BME280;63165;43.016;25.784;2023-04-07T09:22:37;99953.38;;;14.67;35.73
9523;BME280;63165;43.016;25.784;2023-04-07T09:25:14;99928.28;;;14.55;34.91
9523;BME280;63165;43.016;25.784;2023-04-07T09:27:53;99924.69;;;14.59;34.87
9523;BME280;63165;43.016;25.784;2023-04-07T09:30:23;99976.78;;;15.00;35.32
9523;BME280;63165;43.016;25.784;2023-04-07T09:32:50;99983.53;;;15.07;35.30
9523;BME280;63165;43.016;25.784;2023-04-07T09:35:17;99892.91;;;14.64;35.89
9523;BME280;63165;43.016;25.784;2023-04-07T09:38:00;99906.81;;;14.67;36.01
9523;BME280;63165;43.016;25.784;2023-04-07T09:40:28;99922.19;;;14.80;36.09
9523;BME280;63165;43.016;25.784;2023-04-07T09:42:55;99865.81;;;14.35;35.79
9523;BME280;63165;43.016;25.784;2023-04-07T09:45:26;99972.53;;;14.95;35.13
9523;BME280;63165;43.016;25.784;2023-04-07T09:47:53;99893.69;;;14.41;35.79
9523;BME280;63165;43.016;25.784;2023-04-07T09:50:31;99870.41;;;14.28;35.63
9523;BME280;63165;43.016;25.784;2023-04-07T09:52:59;99907.47;;;14.47;35.46
9523;BME280;63165;43.016;25.784;2023-04-07T09:55:28;99907.28;;;14.53;35.11
9523;BME280;63165;43.016;25.784;2023-04-07T09:57:55;99911.75;;;14.51;34.79
9523;BME280;63165;43.016;25.784;2023-04-07T10:00:23;99961.75;;;14.78;34.85
9523;BME280;63165;43.016;25.784;2023-04-07T10:02:53;99860.75;;;14.29;36.12
9523;BME280;63165;43.016;25.784;2023-04-07T10:05:21;99897.03;;;14.71;36.07
9523;BME280;63165;43.016;25.784;2023-04-07T10:07:48;99929.16;;;15.06;35.89
9523;BME280;63165;43.016;25.784;2023-04-07T10:10:16;99870.81;;;14.68;35.13
9523;BME280;63165;43.016;25.784;2023-04-07T10:12:43;99927.00;;;15.16;35.22
9523;BME280;63165;43.016;25.784;2023-04-07T10:15:12;99950.72;;;15.39;34.50
9523;BME280;63165;43.016;25.784;2023-04-07T10:17:44;99933.13;;;15.40;33.89
9523;BME280;63165;43.016;25.784;2023-04-07T10:20:16;99945.09;;;15.48;34.02
9523;BME280;63165;43.016;25.784;2023-04-07T10:22:46;99892.88;;;15.12;34.62
9523;BME280;63165;43.016;25.784;2023-04-07T10:25:18;99895.44;;;15.14;33.78
9523;BME280;63165;43.016;25.784;2023-04-07T10:27:49;99963.88;;;15.39;33.83
9523;BME280;63165;43.016;25.784;2023-04-07T10:30:22;99852.91;;;14.52;34.71
9523;BME280;63165;43.016;25.784;2023-04-07T10:32:51;99917.03;;;14.77;34.90
9523;BME280;63165;43.016;25.784;2023-04-07T10:35:21;99959.44;;;15.18;35.66
9523;BME280;63165;43.016;25.784;2023-04-07T10:38:11;99953.75;;;15.05;36.08
9523;BME280;63165;43.016;25.784;2023-04-07T10:40:40;99961.22;;;15.17;36.14
9523;BME280;63165;43.016;25.784;2023-04-07T10:43:09;99868.31;;;14.65;36.13
9523;BME280;63165;43.016;25.784;2023-04-07T10:45:53;99951.88;;;15.08;37.17
9523;BME280;63165;43.016;25.784;2023-04-07T10:48:21;99974.59;;;15.11;36.59
9523;BME280;63165;43.016;25.784;2023-04-07T10:51:17;99955.59;;;15.03;36.84
9523;BME280;63165;43.016;25.784;2023-04-07T10:54:18;99964.69;;;14.94;36.61
9523;BME280;63165;43.016;25.784;2023-04-07T10:57:13;99968.56;;;14.84;36.46
9523;BME280;63165;43.016;25.784;2023-04-07T11:00:13;99918.16;;;14.44;36.25
9523;BME280;63165;43.016;25.784;2023-04-07T11:02:44;99894.25;;;14.25;36.79
9523;BME280;63165;43.016;25.784;2023-04-07T11:05:20;99911.38;;;14.37;36.52
9523;BME280;63165;43.016;25.784;2023-04-07T11:07:52;99894.16;;;14.27;36.49
9523;BME280;63165;43.016;25.784;2023-04-07T11:10:25;99920.13;;;14.37;36.51
9523;BME280;63165;43.016;25.784;2023-04-07T11:12:59;99955.06;;;14.68;37.04
9523;BME280;63165;43.016;25.784;2023-04-07T11:15:27;99992.28;;;14.84;37.33
9523;BME280;63165;43.016;25.784;2023-04-07T11:18:11;99972.00;;;14.86;38.40
9523;BME280;63165;43.016;25.784;2023-04-07T11:20:47;99972.53;;;14.95;38.09
9523;BME280;63165;43.016;25.784;2023-04-07T11:23:17;99975.41;;;15.13;38.51
9523;BME280;63165;43.016;25.784;2023-04-07T11:25:47;100006.59;;;15.25;38.23
9523;BME280;63165;43.016;25.784;2023-04-07T11:28:14;99941.69;;;15.23;38.33
9523;BME280;63165;43.016;25.784;2023-04-07T11:30:47;99934.41;;;15.06;37.43
9523;BME280;63165;43.016;25.784;2023-04-07T11:33:17;99979.31;;;15.50;36.72
9523;BME280;63165;43.016;25.784;2023-04-07T11:35:49;99975.72;;;15.52;35.99
9523;BME280;63165;43.016;25.784;2023-04-07T11:38:19;99948.22;;;15.36;35.73
9523;BME280;63165;43.016;25.784;2023-04-07T11:40:49;99978.28;;;15.54;36.35
9523;BME280;63165;43.016;25.784;2023-04-07T11:43:19;99972.72;;;15.62;35.94
9523;BME280;63165;43.016;25.784;2023-04-07T11:46:02;99956.38;;;15.52;36.07
9523;BME280;63165;43.016;25.784;2023-04-07T11:48:31;99954.03;;;15.44;35.99
9523;BME280;63165;43.016;25.784;2023-04-07T11:50:59;99955.94;;;15.41;36.40
9523;BME280;63165;43.016;25.784;2023-04-07T11:53:29;99940.28;;;15.12;35.94
9523;BME280;63165;43.016;25.784;2023-04-07T11:56:01;99950.16;;;15.31;36.04
9523;BME280;63165;43.016;25.784;2023-04-07T11:58:29;99969.25;;;15.38;36.76
9523;BME280;63165;43.016;25.784;2023-04-07T12:00:57;99911.94;;;14.95;36.92
9523;BME280;63165;43.016;25.784;2023-04-07T12:03:28;99936.75;;;15.13;36.37
9523;BME280;63165;43.016;25.784;2023-04-07T12:05:55;99965.63;;;15.17;35.96
9523;BME280;63165;43.016;25.784;2023-04-07T12:08:37;99991.78;;;14.98;35.73
9523;BME280;63165;43.016;25.784;2023-04-07T12:11:05;99969.88;;;14.72;36.29
9523;BME280;63165;43.016;25.784;2023-04-07T12:13:33;99921.25;;;14.57;35.95
9523;BME280;63165;43.016;25.784;2023-04-07T12:16:02;99977.00;;;14.93;36.72
9523;BME280;63165;43.016;25.784;2023-04-07T12:18:30;99956.09;;;14.64;35.93
9523;BME280;63165;43.016;25.784;2023-04-07T12:20:57;99993.13;;;14.84;36.42
9523;BME280;63165;43.016;25.784;2023-04-07T12:23:24;99926.84;;;14.46;37.15
9523;BME280;63165;43.016;25.784;2023-04-07T12:25:53;99919.78;;;14.47;37.15
9523;BME280;63165;43.016;25.784;2023-04-07T12:28:20;99979.53;;;14.71;36.96
9523;BME280;63165;43.016;25.784;2023-04-07T12:30:47;99928.63;;;14.46;37.16
9523;BME280;63165;43.016;25.784;2023-04-07T12:33:15;99963.78;;;14.70;37.37
9523;BME280;63165;43.016;25.784;2023-04-07T12:35:42;99930.53;;;14.41;36.86
9523;BME280;63165;43.016;25.784;2023-04-07T12:38:09;99979.47;;;14.73;37.88
9523;BME280;63165;43.016;25.784;2023-04-07T12:40:37;99939.59;;;14.32;37.16
9523;BME280;63165;43.016;25.784;2023-04-07T12:43:06;99867.97;;;13.97;37.62
9523;BME280;63165;43.016;25.784;2023-04-07T12:45:33;99980.19;;;14.51;37.61
9523;BME280;63165;43.016;25.784;2023-04-07T12:48:01;99991.19;;;14.64;37.58
9523;BME280;63165;43.016;25.784;2023-04-07T12:50:28;99987.22;;;14.51;37.48
9523;BME280;63165;43.016;25.784;2023-04-07T12:52:56;99984.75;;;14.46;37.49
9523;BME280;63165;43.016;25.784;2023-04-07T12:55:24;99995.38;;;14.43;37.93
9523;BME280;63165;43.016;25.784;2023-04-07T12:57:51;99966.34;;;14.20;37.32
9523;BME280;63165;43.016;25.784;2023-04-07T13:00:21;100000.09;;;14.33;36.79
9523;BME280;63165;43.016;25.784;2023-04-07T13:02:48;100009.03;;;14.28;37.61
9523;BME280;63165;43.016;25.784;2023-04-07T13:05:15;100004.03;;;14.20;37.93
9523;BME280;63165;43.016;25.784;2023-04-07T13:07:43;100007.59;;;14.17;38.10
9523;BME280;63165;43.016;25.784;2023-04-07T13:10:10;99984.31;;;14.07;38.47
9523;BME280;63165;43.016;25.784;2023-04-07T13:12:37;100006.97;;;14.11;38.48
9523;BME280;63165;43.016;25.784;2023-04-07T13:15:07;99949.41;;;13.73;39.21